Time;durP1;ratioP1;P1;durP2;ratioP2;P2;SDS_P1;SDS_P2;PMS_P1;PMS_P2;Temp;Humidity;BMP_temperature;BMP_pressure;BME280_temperature;BME280_humidity;BME280_pressure;Samples;Min_cycle;Max_cycle;Signal;HPM_P1;HPM_P2
2023/05/22 00:02:09;;;;;;;8.43;6.93;;;;;;;18.46;73.65;100827.50;4904147;29;20113;-82
2023/05/22 00:04:36;;;;;;;8.27;7.45;;;;;;;18.42;73.58;100817.97;4903953;29;20044;-82
2023/05/22 00:07:03;;;;;;;9.93;7.93;;;;;;;18.34;74.41;100813.84;4899068;29;20566;-82
2023/05/22 00:09:30;;;;;;;10.27;8.38;;;;;;;18.39;74.28;100813.66;4900265;29;20083;-82
2023/05/22 00:11:57;;;;;;;8.88;7.97;;;;;;;18.41;73.93;100813.59;4888223;29;20071;-81
2023/05/22 00:14:23;;;;;;;11.15;7.38;;;;;;;18.42;73.63;100805.59;4902508;29;20060;-85
2023/05/22 00:16:50;;;;;;;8.93;7.88;;;;;;;18.42;73.68;100810.91;4904783;29;20048;-82
2023/05/22 00:19:17;;;;;;;8.13;7.03;;;;;;;18.44;73.66;100808.19;4904198;29;20052;-82
2023/05/22 00:21:45;;;;;;;10.27;7.55;;;;;;;18.45;73.65;100809.91;4900240;29;20048;-81
2023/05/22 00:24:12;;;;;;;8.55;7.68;;;;;;;18.43;73.67;100806.44;4895753;29;20770;-81
2023/05/22 00:26:39;;;;;;;9.35;7.47;;;;;;;18.41;73.74;100801.22;4904147;29;20047;-82
2023/05/22 00:29:05;;;;;;;8.80;7.90;;;;;;;18.39;74.23;100810.16;4896074;29;20051;-86
2023/05/22 00:31:32;;;;;;;9.30;7.57;;;;;;;18.39;74.21;100802.19;4892182;29;20048;-85
2023/05/22 00:33:59;;;;;;;7.50;6.85;;;;;;;18.40;74.59;100806.56;4901523;29;20051;-84
2023/05/22 00:36:26;;;;;;;7.57;6.80;;;;;;;18.41;74.24;100803.84;4899154;29;20107;-85
2023/05/22 00:38:52;;;;;;;10.35;8.15;;;;;;;18.38;74.56;100806.59;4918353;29;20056;-83
2023/05/22 00:41:18;;;;;;;8.73;6.60;;;;;;;18.37;74.08;100806.69;4898605;29;20051;-84
2023/05/22 00:43:46;;;;;;;8.95;8.05;;;;;;;18.31;75.02;100803.34;4915018;29;20491;-80
2023/05/22 00:46:13;;;;;;;8.80;7.90;;;;;;;18.30;75.18;100808.72;4882942;29;20055;-83
2023/05/22 00:48:39;;;;;;;9.70;8.48;;;;;;;18.26;75.28;100802.66;4902370;29;20071;-83
2023/05/22 00:51:07;;;;;;;11.35;7.57;;;;;;;18.23;75.39;100796.63;4901678;29;20048;-86
2023/05/22 00:53:33;;;;;;;8.10;7.30;;;;;;;18.21;75.98;100807.25;4918109;29;20050;-81
2023/05/22 00:56:00;;;;;;;8.30;7.30;;;;;;;18.21;75.98;100801.13;4900503;29;20048;-82
2023/05/22 00:58:27;;;;;;;8.25;7.43;;;;;;;18.19;75.74;100796.72;4899406;29;20483;-85
2023/05/22 01:00:54;;;;;;;8.35;7.55;;;;;;;18.18;76.46;100802.09;4903983;29;20044;-83
2023/05/22 01:03:24;;;;;;;8.13;7.32;;;;;;;18.16;76.48;100795.97;4897778;29;20479;-84
2023/05/22 01:05:52;;;;;;;8.45;7.55;;;;;;;18.15;76.55;100794.28;4881376;29;20044;-82
2023/05/22 01:08:19;;;;;;;10.02;8.90;;;;;;;18.14;76.74;100787.25;4896697;29;20136;-85
2023/05/22 01:10:46;;;;;;;12.85;8.38;;;;;;;18.11;76.56;100782.06;4892431;29;20060;-84
2023/05/22 01:13:36;;;;;;;9.55;7.28;;;;;;;18.08;76.92;100783.06;4908779;29;20036;-81
2023/05/22 01:16:37;;;;;;;9.15;8.05;;;;;;;18.05;76.76;100788.44;4903915;29;20055;-83
2023/05/22 01:19:34;;;;;;;10.05;8.20;;;;;;;18.00;77.19;100793.06;4893020;29;20087;-81
2023/05/22 01:22:34;;;;;;;8.52;7.82;;;;;;;17.95;77.25;100784.41;4908598;29;20051;-83
2023/05/22 01:25:15;;;;;;;9.43;7.60;;;;;;;17.90;77.16;100791.63;4873666;29;20440;-80
2023/05/22 01:28:09;;;;;;;8.25;7.45;;;;;;;17.86;77.94;100788.28;4895300;29;20044;-83
2023/05/22 01:31:02;;;;;;;9.07;8.05;;;;;;;17.82;77.75;100791.91;4918881;29;20048;-81
2023/05/22 01:33:37;;;;;;;9.35;7.78;;;;;;;17.76;77.71;100785.09;4927156;29;20091;-81
2023/05/22 01:36:08;;;;;;;12.05;7.85;;;;;;;17.73;78.20;100774.63;4928053;29;20051;-81
2023/05/22 01:38:35;;;;;;;9.15;7.20;;;;;;;17.68;78.24;100776.56;4911861;29;20048;-88
2023/05/22 01:41:02;;;;;;;7.80;7.07;;;;;;;17.62;78.31;100772.34;4909188;29;20084;-80
2023/05/22 01:43:29;;;;;;;7.05;6.45;;;;;;;17.56;77.88;100772.59;4911039;29;20538;-83
2023/05/22 01:45:55;;;;;;;7.78;6.78;;;;;;;17.49;78.76;100774.56;4907071;29;20048;-81
2023/05/22 01:48:22;;;;;;;8.60;7.68;;;;;;;17.46;78.97;100776.47;4908687;29;20067;-81
2023/05/22 01:50:52;;;;;;;10.75;6.60;;;;;;;17.44;78.92;100778.31;4923646;29;20032;-81
2023/05/22 01:53:30;;;;;;;8.18;7.38;;;;;;;17.36;79.01;100779.47;4907384;29;20051;-81
2023/05/22 01:56:20;;;;;;;8.48;7.30;;;;;;;17.34;79.28;100785.72;4917235;29;20045;-83
2023/05/22 01:59:02;;;;;;;7.43;6.78;;;;;;;17.29;79.86;100787.66;4924692;29;20040;-81
2023/05/22 02:01:32;;;;;;;8.55;7.75;;;;;;;17.25;79.75;100773.66;4905913;29;20047;-81
2023/05/22 02:03:58;;;;;;;7.85;7.03;;;;;;;17.20;79.86;100771.16;4910625;29;20131;-80
2023/05/22 02:06:28;;;;;;;8.65;7.75;;;;;;;17.14;80.04;100774.06;4909210;29;20060;-82
2023/05/22 02:08:55;;;;;;;7.57;6.72;;;;;;;17.09;80.41;100768.06;4911380;29;20056;-81
2023/05/22 02:11:27;;;;;;;11.65;7.65;;;;;;;17.03;80.61;100771.75;4923035;29;20569;-81
2023/05/22 02:13:53;;;;;;;7.53;6.78;;;;;;;16.98;80.72;100767.53;4912346;29;20522;-84
2023/05/22 02:16:20;;;;;;;7.88;7.15;;;;;;;16.93;81.01;100756.25;4910988;29;20059;-81
2023/05/22 02:18:47;;;;;;;7.55;6.85;;;;;;;16.85;81.78;100756.47;4901314;29;20794;-85
2023/05/22 02:21:17;;;;;;;8.07;7.28;;;;;;;16.82;81.83;100762.72;4913565;29;20055;-80
2023/05/22 02:23:44;;;;;;;8.23;6.72;;;;;;;16.79;82.04;100757.56;4900759;29;20042;-84
2023/05/22 02:26:10;;;;;;;7.05;6.35;;;;;;;16.73;82.20;100763.03;4918242;29;20155;-85
2023/05/22 02:28:37;;;;;;;9.80;7.55;;;;;;;16.68;82.60;100763.19;4913400;29;20040;-89
2023/05/22 02:31:03;;;;;;;7.68;6.88;;;;;;;16.64;82.96;100748.34;4935389;29;20058;-81
2023/05/22 02:33:30;;;;;;;6.68;6.03;;;;;;;16.60;83.06;100751.16;4904384;29;20043;-86
2023/05/22 02:35:56;;;;;;;7.88;7.07;;;;;;;16.54;83.16;100746.91;4918532;29;20036;-82
2023/05/22 02:38:22;;;;;;;9.57;8.27;;;;;;;16.51;83.28;100744.38;4916781;29;20055;-82
2023/05/22 02:40:49;;;;;;;7.72;6.93;;;;;;;16.44;83.76;100742.84;4919203;29;20062;-83
2023/05/22 02:43:15;;;;;;;7.50;6.78;;;;;;;16.43;83.96;100738.47;4919709;29;20043;-81
2023/05/22 02:45:42;;;;;;;10.20;7.32;;;;;;;16.39;84.28;100737.72;4926110;29;20035;-86
2023/05/22 02:48:08;;;;;;;7.95;7.15;;;;;;;16.32;84.09;100739.69;4924154;29;20051;-82
2023/05/22 02:50:34;;;;;;;8.77;7.50;;;;;;;16.32;84.28;100736.16;4914395;29;20503;-83
2023/05/22 02:53:01;;;;;;;7.88;6.97;;;;;;;16.30;84.07;100727.44;4939397;29;20099;-83
2023/05/22 02:55:27;;;;;;;7.65;6.88;;;;;;;16.27;84.40;100727.50;4917792;29;20047;-83
2023/05/22 02:57:55;;;;;;;7.82;7.13;;;;;;;16.24;84.12;100730.25;4920269;29;20044;-82
2023/05/22 03:00:21;;;;;;;7.57;6.88;;;;;;;16.20;83.98;100742.69;4918817;29;20553;-81
2023/05/22 03:02:48;;;;;;;8.77;7.90;;;;;;;16.18;84.54;100739.25;4916046;29;20102;-82
2023/05/22 03:05:16;;;;;;;11.80;7.07;;;;;;;16.17;84.44;100734.88;4934824;29;20079;-82
2023/05/22 03:07:43;;;;;;;9.55;7.57;;;;;;;16.21;84.14;100728.59;4917297;29;20081;-83
2023/05/22 03:10:10;;;;;;;11.98;7.18;;;;;;;16.21;84.26;100731.22;4919801;29;20055;-84
2023/05/22 03:12:37;;;;;;;8.40;6.70;;;;;;;16.18;84.05;100732.19;4913523;29;20040;-81
2023/05/22 03:15:03;;;;;;;8.82;8.02;;;;;;;16.18;84.03;100732.19;4917974;29;20158;-81
2023/05/22 03:17:30;;;;;;;9.52;7.82;;;;;;;16.20;83.94;100737.41;4900404;29;20091;-83
2023/05/22 03:19:56;;;;;;;7.13;6.53;;;;;;;16.20;83.70;100734.78;4887167;29;20111;-85
2023/05/22 03:22:23;;;;;;;9.32;7.50;;;;;;;16.17;83.77;100733.09;4911659;29;20411;-81
2023/05/22 03:24:49;;;;;;;7.60;6.90;;;;;;;16.20;83.81;100734.78;4897298;29;20048;-82
2023/05/22 03:27:16;;;;;;;6.95;6.35;;;;;;;16.19;83.87;100741.84;4893712;29;20056;-83
2023/05/22 03:29:43;;;;;;;8.18;6.88;;;;;;;16.15;83.51;100740.22;4910663;29;20046;-82
2023/05/22 03:32:09;;;;;;;8.88;7.05;;;;;;;16.15;83.83;100739.34;4914763;29;20482;-82
2023/05/22 03:34:37;;;;;;;7.13;6.00;;;;;;;16.14;83.70;100734.94;4879303;29;20049;-83
2023/05/22 03:37:03;;;;;;;10.00;6.55;;;;;;;16.11;83.75;100741.19;4911296;29;20068;-83
2023/05/22 03:39:30;;;;;;;8.52;6.90;;;;;;;16.08;84.00;100741.31;4914355;29;20070;-86
2023/05/22 03:41:56;;;;;;;9.02;7.13;;;;;;;16.07;84.20;100742.19;4891162;29;20077;-85
2023/05/22 03:44:23;;;;;;;7.18;6.57;;;;;;;16.08;84.13;100743.09;4915978;29;20055;-85
2023/05/22 03:46:50;;;;;;;8.25;6.65;;;;;;;16.04;83.99;100740.53;4880855;29;20047;-82
2023/05/22 03:49:16;;;;;;;8.38;7.45;;;;;;;16.03;83.83;100740.56;4893558;29;20087;-81
2023/05/22 03:51:43;;;;;;;7.40;6.65;;;;;;;16.02;84.33;100739.72;4895936;29;20135;-83
2023/05/22 03:54:09;;;;;;;10.38;7.72;;;;;;;16.03;84.00;100735.28;4899788;29;20047;-83
2023/05/22 03:56:36;;;;;;;7.00;6.30;;;;;;;16.01;83.74;100740.63;4897249;29;20039;-82
2023/05/22 03:59:02;;;;;;;8.13;7.30;;;;;;;16.03;83.97;100737.94;4896456;29;20044;-82
2023/05/22 04:01:30;;;;;;;9.07;7.25;;;;;;;16.04;83.84;100734.38;4895103;29;20044;-83
2023/05/22 04:03:56;;;;;;;7.53;6.82;;;;;;;16.05;83.50;100733.47;4911194;29;20050;-85
2023/05/22 04:06:24;;;;;;;8.82;7.10;;;;;;;16.04;83.30;100739.66;4912457;29;20132;-81
2023/05/22 04:08:50;;;;;;;6.82;6.13;;;;;;;16.06;83.27;100734.34;4895910;29;20048;-82
2023/05/22 04:11:18;;;;;;;8.02;7.20;;;;;;;16.06;83.36;100727.28;4893570;29;20250;-81
2023/05/22 04:13:45;;;;;;;7.63;6.90;;;;;;;16.09;83.06;100735.13;4894280;29;20043;-82
2023/05/22 04:16:11;;;;;;;8.07;7.28;;;;;;;16.11;82.85;100729.78;4914967;29;20114;-82
2023/05/22 04:18:38;;;;;;;8.07;6.85;;;;;;;16.15;82.77;100734.03;4896412;29;20336;-82
2023/05/22 04:21:06;;;;;;;6.60;6.03;;;;;;;16.17;82.41;100745.44;4931151;29;20059;-84
2023/05/22 04:23:33;;;;;;;7.53;6.50;;;;;;;16.21;82.13;100734.72;4911964;29;20142;-83
2023/05/22 04:26:01;;;;;;;8.23;6.53;;;;;;;16.25;81.96;100743.41;4911094;29;20052;-81
2023/05/22 04:28:30;;;;;;;7.38;6.63;;;;;;;16.31;81.28;100743.22;4911514;29;20043;-81
2023/05/22 04:30:57;;;;;;;9.50;6.97;;;;;;;16.35;80.68;100744.88;4920553;29;20114;-82
2023/05/22 04:33:24;;;;;;;6.35;5.78;;;;;;;16.42;80.51;100744.69;4930879;29;20106;-82
2023/05/22 04:35:51;;;;;;;6.97;6.35;;;;;;;16.47;80.15;100742.75;4931995;29;20053;-84
2023/05/22 04:38:18;;;;;;;6.60;5.75;;;;;;;16.52;79.75;100746.13;4930521;29;20059;-83
2023/05/22 04:40:44;;;;;;;7.85;6.18;;;;;;;16.57;79.42;100743.31;4912898;29;20036;-83
2023/05/22 04:43:11;;;;;;;7.63;6.22;;;;;;;16.60;78.68;100748.50;4917598;29;20402;-81
2023/05/22 04:45:38;;;;;;;12.68;7.35;;;;;;;16.63;78.68;100741.31;4916519;29;20039;-83
2023/05/22 04:48:06;;;;;;;8.05;6.93;;;;;;;16.66;78.30;100743.00;4934412;29;20103;-81
2023/05/22 04:50:33;;;;;;;8.48;6.40;;;;;;;16.68;77.60;100743.81;4919972;29;20044;-82
2023/05/22 04:53:02;;;;;;;7.97;6.78;;;;;;;16.69;77.82;100741.13;4902182;29;20049;-82
2023/05/22 04:55:32;;;;;;;9.63;5.97;;;;;;;16.71;77.71;100741.06;4920438;29;20059;-86
2023/05/22 04:57:59;;;;;;;8.02;6.15;;;;;;;16.74;77.37;100733.06;4923715;29;20150;-82
2023/05/22 05:00:27;;;;;;;7.07;6.32;;;;;;;16.76;76.95;100739.13;4913681;29;20051;-81
2023/05/22 05:02:54;;;;;;;6.97;6.38;;;;;;;16.78;76.76;100734.69;4932057;29;20118;-82
2023/05/22 05:05:20;;;;;;;6.75;6.10;;;;;;;16.81;76.63;100729.28;4916446;29;20099;-80
2023/05/22 05:07:49;;;;;;;6.68;6.03;;;;;;;16.87;76.31;100729.06;4931123;29;20044;-82
2023/05/22 05:10:16;;;;;;;9.20;7.20;;;;;;;16.90;75.76;100730.78;4917479;29;20509;-83
2023/05/22 05:12:45;;;;;;;9.77;6.72;;;;;;;16.96;75.46;100724.41;4919100;29;20039;-86
2023/05/22 05:15:12;;;;;;;7.03;6.20;;;;;;;16.99;74.95;100726.97;4906473;29;20110;-81
2023/05/22 05:17:38;;;;;;;5.97;5.30;;;;;;;16.97;75.14;100716.44;4921345;29;20047;-81
2023/05/22 05:20:07;;;;;;;6.18;5.57;;;;;;;17.05;74.54;100723.25;4914050;29;20055;-84
2023/05/22 05:22:33;;;;;;;9.25;5.57;;;;;;;17.08;74.14;100725.75;4916794;29;20494;-82
2023/05/22 05:25:00;;;;;;;6.63;5.80;;;;;;;17.13;74.20;100726.47;4900878;29;20123;-83
2023/05/22 05:27:27;;;;;;;7.95;5.97;;;;;;;17.18;73.90;100724.53;4915145;29;20051;-82
2023/05/22 05:29:53;;;;;;;9.48;6.22;;;;;;;17.21;73.66;100719.16;4913732;29;20055;-82
2023/05/22 05:32:20;;;;;;;10.82;6.07;;;;;;;17.24;73.11;100724.31;4918785;29;20043;-84
2023/05/22 05:34:46;;;;;;;6.13;5.57;;;;;;;17.30;73.15;100726.75;4918026;29;20048;-82
2023/05/22 05:37:13;;;;;;;10.13;5.70;;;;;;;17.34;73.12;100719.56;4920645;29;20044;-84
2023/05/22 05:39:39;;;;;;;7.63;6.72;;;;;;;17.39;72.72;100722.91;4916043;29;20063;-81
2023/05/22 05:42:06;;;;;;;6.28;5.63;;;;;;;17.46;72.42;100719.09;4939893;29;20054;-81
2023/05/22 05:44:32;;;;;;;9.70;6.85;;;;;;;17.53;71.81;100727.69;4923445;29;20463;-81
2023/05/22 05:47:00;;;;;;;8.07;5.50;;;;;;;17.60;71.40;100728.31;4923434;29;20047;-82
2023/05/22 05:49:27;;;;;;;10.85;7.18;;;;;;;17.65;71.26;100729.91;4902884;29;20115;-82
2023/05/22 05:51:54;;;;;;;10.85;6.10;;;;;;;17.70;71.02;100729.69;4918765;29;20047;-82
2023/05/22 05:54:20;;;;;;;8.43;6.70;;;;;;;17.72;71.10;100727.88;4919663;29;20044;-84
2023/05/22 05:56:47;;;;;;;9.80;6.40;;;;;;;17.77;70.83;100733.84;4923813;29;20049;-81
2023/05/22 05:59:15;;;;;;;6.57;5.20;;;;;;;17.84;70.06;100727.41;4938495;29;20475;-83
2023/05/22 06:01:45;;;;;;;6.45;5.85;;;;;;;17.86;69.73;100728.22;4925562;29;20046;-84
2023/05/22 06:04:13;;;;;;;6.00;5.45;;;;;;;17.88;69.90;100729.94;4939820;29;20044;-84
2023/05/22 06:06:41;;;;;;;12.38;6.25;;;;;;;17.95;69.70;100721.75;4928321;29;20044;-81
2023/05/22 06:09:09;;;;;;;7.93;5.95;;;;;;;18.03;69.04;100732.03;4925894;29;20044;-84
2023/05/22 06:11:36;;;;;;;6.30;4.97;;;;;;;18.16;69.09;100730.63;4928830;29;20035;-88
2023/05/22 06:14:05;;;;;;;7.00;5.93;;;;;;;18.23;68.45;100725.94;4917635;29;20317;-85
2023/05/22 06:16:32;;;;;;;24.40;6.38;;;;;;;18.28;68.17;100725.78;4918854;29;20063;-88
2023/05/22 06:18:59;;;;;;;8.25;5.40;;;;;;;18.34;68.13;100725.50;4948017;29;20039;-82
2023/05/22 06:21:26;;;;;;;9.93;5.78;;;;;;;18.42;67.86;100725.19;4931807;29;20115;-85
2023/05/22 06:23:52;;;;;;;8.98;5.68;;;;;;;18.44;67.60;100724.22;4935245;29;20082;-81
2023/05/22 06:26:19;;;;;;;6.97;6.28;;;;;;;18.50;67.51;100729.28;4914226;29;20044;-81
2023/05/22 06:28:45;;;;;;;7.70;6.90;;;;;;;18.52;66.93;100730.09;4917582;29;20039;-81
2023/05/22 06:31:11;;;;;;;7.95;6.32;;;;;;;18.56;66.80;100728.16;4917637;29;20054;-88
2023/05/22 06:33:39;;;;;;;13.60;6.70;;;;;;;18.69;66.55;100736.47;4938868;29;20039;-81
2023/05/22 06:36:07;;;;;;;9.52;7.38;;;;;;;18.70;65.72;100721.44;4930725;29;20039;-87
2023/05/22 06:38:34;;;;;;;10.43;7.00;;;;;;;18.69;65.69;100723.19;4931354;29;20094;-88
2023/05/22 06:41:01;;;;;;;6.72;6.05;;;;;;;18.75;65.95;100730.06;4931739;29;20043;-84
2023/05/22 06:43:27;;;;;;;8.65;6.28;;;;;;;18.85;65.65;100732.25;4942185;29;20071;-83
2023/05/22 06:45:53;;;;;;;7.53;6.15;;;;;;;19.05;64.86;100740.31;4934944;29;20090;-85
2023/05/22 06:48:20;;;;;;;6.88;5.95;;;;;;;19.06;64.42;100739.38;4932473;29;20047;-85
2023/05/22 06:50:46;;;;;;;6.95;6.00;;;;;;;19.13;64.60;100735.53;4922521;29;20050;-84
2023/05/22 06:53:13;;;;;;;5.88;5.38;;;;;;;19.27;64.43;100732.28;4920193;29;20123;-84
2023/05/22 06:55:40;;;;;;;7.45;6.53;;;;;;;19.39;63.80;100739.69;4921558;29;20074;-82
2023/05/22 06:58:07;;;;;;;8.20;5.47;;;;;;;19.44;63.75;100737.69;4918569;29;20042;-87
2023/05/22 07:00:33;;;;;;;5.72;4.85;;;;;;;19.56;63.62;100741.59;4916267;29;20213;-85
2023/05/22 07:03:00;;;;;;;6.07;5.47;;;;;;;19.62;62.68;100740.44;4950256;29;20166;-83
2023/05/22 07:05:27;;;;;;;7.78;6.53;;;;;;;19.53;63.47;100747.06;4937497;29;20079;-87
2023/05/22 07:07:53;;;;;;;7.65;5.72;;;;;;;19.52;63.96;100745.31;4946356;29;20059;-86
2023/05/22 07:10:20;;;;;;;6.43;5.30;;;;;;;19.67;63.36;100743.75;4931741;29;20057;-85
2023/05/22 07:12:46;;;;;;;6.55;5.68;;;;;;;19.94;62.80;100741.66;4932677;29;20143;-83
2023/05/22 07:15:13;;;;;;;5.80;5.25;;;;;;;20.28;61.44;100744.50;4915268;29;20044;-84
2023/05/22 07:17:40;;;;;;;6.35;5.80;;;;;;;20.60;60.22;100739.44;4932427;29;20032;-84
2023/05/22 07:20:09;;;;;;;7.00;5.65;;;;;;;20.74;60.01;100736.97;4929010;29;20313;-87
2023/05/22 07:22:36;;;;;;;7.78;6.45;;;;;;;20.95;59.40;100737.69;4916929;29;20497;-85
2023/05/22 07:25:03;;;;;;;6.45;5.57;;;;;;;20.96;59.12;100744.72;4926903;29;20047;-87
2023/05/22 07:27:29;;;;;;;6.72;5.93;;;;;;;20.86;59.49;100739.94;4900307;29;20055;-85
2023/05/22 07:29:56;;;;;;;9.48;6.45;;;;;;;20.88;59.30;100730.09;4915629;29;20142;-83
2023/05/22 07:32:22;;;;;;;7.28;5.15;;;;;;;21.02;59.34;100740.03;4908572;29;20048;-87
2023/05/22 07:34:48;;;;;;;8.80;6.15;;;;;;;21.11;58.74;100737.75;4925349;29;20036;-85
2023/05/22 07:37:15;;;;;;;6.65;5.95;;;;;;;21.36;58.41;100743.59;4905362;29;20051;-81
2023/05/22 07:39:42;;;;;;;7.15;6.47;;;;;;;21.78;57.25;100732.47;4903550;29;20109;-83
2023/05/22 07:42:08;;;;;;;6.05;5.25;;;;;;;22.51;54.41;100731.09;4930674;29;20059;-87
2023/05/22 07:44:34;;;;;;;6.25;5.60;;;;;;;23.25;53.10;100723.22;4914458;29;20594;-88
2023/05/22 07:47:01;;;;;;;6.75;5.95;;;;;;;24.00;51.38;100725.69;4931236;29;20039;-85
2023/05/22 07:49:28;;;;;;;6.00;5.20;;;;;;;23.99;50.50;100723.09;4913010;29;20079;-82
2023/05/22 07:51:54;;;;;;;7.40;6.13;;;;;;;24.12;49.73;100724.03;4914935;29;20112;-87
2023/05/22 07:54:20;;;;;;;6.50;5.85;;;;;;;23.99;50.31;100718.63;4915066;29;20048;-85
2023/05/22 07:56:47;;;;;;;6.47;5.75;;;;;;;24.21;49.70;100719.88;4908797;29;20050;-84
2023/05/22 07:59:13;;;;;;;7.28;6.38;;;;;;;24.10;49.71;100724.13;4900752;29;20056;-84
2023/05/22 08:01:41;;;;;;;6.78;6.10;;;;;;;23.97;50.42;100731.22;4900287;29;20042;-82
2023/05/22 08:04:08;;;;;;;11.10;6.30;;;;;;;24.07;50.21;100724.31;4903623;29;20129;-83
2023/05/22 08:06:35;;;;;;;7.68;6.28;;;;;;;24.57;49.32;100729.13;4896638;29;20072;-83
2023/05/22 08:09:03;;;;;;;6.82;5.97;;;;;;;25.12;47.94;100723.69;4897615;29;20040;-82
2023/05/22 08:11:29;;;;;;;9.48;5.55;;;;;;;25.87;46.19;100725.59;4901194;29;20052;-83
2023/05/22 08:13:56;;;;;;;10.18;6.45;;;;;;;26.09;44.52;100725.75;4898740;29;20499;-83
2023/05/22 08:16:23;;;;;;;6.97;6.35;;;;;;;25.82;44.62;100725.06;4899241;29;20067;-82
2023/05/22 08:18:49;;;;;;;10.10;6.68;;;;;;;25.95;45.14;100728.56;4903127;29;20048;-82
2023/05/22 08:21:16;;;;;;;8.40;6.65;;;;;;;26.21;44.14;100731.19;4924449;29;20056;-83
2023/05/22 08:23:42;;;;;;;9.65;5.97;;;;;;;26.11;43.99;100720.28;4922286;29;20048;-83
2023/05/22 08:26:09;;;;;;;6.07;5.57;;;;;;;25.93;44.48;100722.47;4911811;29;20119;-82
2023/05/22 08:28:36;;;;;;;6.78;5.97;;;;;;;26.55;44.07;100709.88;4908739;29;20041;-82
2023/05/22 08:31:03;;;;;;;9.73;6.20;;;;;;;27.12;42.29;100715.44;4897735;29;20052;-84
2023/05/22 08:33:29;;;;;;;7.85;5.72;;;;;;;27.17;42.75;100718.63;4894952;29;20046;-82
2023/05/22 08:35:56;;;;;;;7.45;5.93;;;;;;;27.32;41.96;100706.66;4928997;29;20498;-82
2023/05/22 08:38:22;;;;;;;7.00;6.30;;;;;;;28.02;40.40;100710.09;4926602;29;20128;-82
2023/05/22 08:40:49;;;;;;;7.60;6.20;;;;;;;28.18;39.54;100711.53;4909536;29;20050;-82
2023/05/22 08:43:15;;;;;;;6.70;6.00;;;;;;;28.84;39.18;100710.56;4929571;29;20044;-84
2023/05/22 08:45:43;;;;;;;6.30;5.78;;;;;;;28.63;38.80;100708.66;4913751;29;20044;-81
2023/05/22 08:48:13;;;;;;;6.82;5.32;;;;;;;28.97;38.75;100699.53;4897487;29;20451;-86
2023/05/22 08:50:44;;;;;;;6.85;5.63;;;;;;;29.35;37.42;100693.53;4916224;29;20383;-83
2023/05/22 08:53:15;;;;;;;9.73;6.45;;;;;;;29.40;36.89;100698.53;4915092;29;20047;-85
2023/05/22 08:55:42;;;;;;;7.50;6.13;;;;;;;29.79;36.54;100703.19;4918873;29;20039;-83
2023/05/22 08:58:10;;;;;;;9.65;6.18;;;;;;;29.55;37.44;100696.31;4905502;29;20135;-83
2023/05/22 09:00:37;;;;;;;8.45;5.85;;;;;;;29.92;36.73;100700.28;4915786;29;20055;-82
2023/05/22 09:03:05;;;;;;;8.25;5.60;;;;;;;30.24;35.74;100697.34;4903970;29;20571;-84
2023/05/22 09:05:32;;;;;;;6.45;5.80;;;;;;;30.44;35.90;100690.13;4910399;29;20040;-85
2023/05/22 09:08:00;;;;;;;6.25;5.70;;;;;;;30.69;35.07;100688.69;4916719;29;20086;-83
2023/05/22 09:10:27;;;;;;;6.07;5.40;;;;;;;30.34;35.16;100692.81;4913083;29;20151;-84
2023/05/22 09:13:06;;;;;;;11.15;5.82;;;;;;;30.47;35.13;100689.03;4912185;29;20044;-83
2023/05/22 09:15:34;;;;;;;6.60;5.82;;;;;;;30.17;35.26;100690.81;4904300;29;20040;-87
2023/05/22 09:18:03;;;;;;;5.88;5.28;;;;;;;30.61;35.33;100691.28;4917122;29;20048;-82
2023/05/22 09:20:36;;;;;;;7.63;6.28;;;;;;;30.35;35.15;100693.66;4916570;29;20058;-84
2023/05/22 09:23:13;;;;;;;8.80;5.85;;;;;;;30.31;35.31;100693.09;4921025;29;20044;-86
2023/05/22 09:25:42;;;;;;;6.68;5.70;;;;;;;30.73;35.60;100683.00;4916792;29;20068;-83
2023/05/22 09:28:08;;;;;;;6.40;5.35;;;;;;;31.50;34.60;100684.63;4912037;29;20479;-85
2023/05/22 09:30:35;;;;;;;10.80;5.40;;;;;;;32.04;33.51;100685.78;4918930;29;20040;-82
2023/05/22 09:33:05;;;;;;;5.63;4.97;;;;;;;33.16;32.51;100681.66;4912051;29;20470;-84
2023/05/22 09:35:32;;;;;;;7.97;5.63;;;;;;;33.97;31.11;100682.19;4917243;29;20104;-85
2023/05/22 09:37:59;;;;;;;6.72;5.78;;;;;;;33.35;30.98;100679.72;4936836;29;20132;-83
2023/05/22 09:40:27;;;;;;;6.25;5.43;;;;;;;33.46;30.97;100674.84;4900492;29;20434;-83
2023/05/22 09:42:54;;;;;;;6.55;5.30;;;;;;;32.66;31.92;100680.44;4918096;29;20548;-84
2023/05/22 09:45:22;;;;;;;6.28;5.32;;;;;;;31.36;34.03;100684.28;4898852;29;20052;-84
2023/05/22 09:47:50;;;;;;;6.13;5.50;;;;;;;30.55;35.13;100682.88;4921161;29;20058;-84
2023/05/22 09:50:17;;;;;;;5.50;4.78;;;;;;;30.08;36.37;100676.31;4916827;29;20484;-83
2023/05/22 09:52:45;;;;;;;6.47;5.05;;;;;;;30.97;34.70;100674.44;4932198;29;20060;-86
2023/05/22 09:55:14;;;;;;;6.97;4.65;;;;;;;31.99;33.27;100672.69;4917174;29;20044;-84
2023/05/22 09:57:45;;;;;;;4.97;4.57;;;;;;;32.99;31.88;100675.28;4927880;29;20407;-83
2023/05/22 10:00:17;;;;;;;5.70;5.20;;;;;;;33.75;30.95;100679.03;4896735;29;20206;-84
2023/05/22 10:02:54;;;;;;;5.63;5.07;;;;;;;33.54;31.17;100679.47;4894967;29;20106;-83
2023/05/22 10:05:21;;;;;;;8.40;5.18;;;;;;;32.21;32.63;100673.28;4918132;29;20205;-83
2023/05/22 10:07:52;;;;;;;10.25;5.15;;;;;;;31.59;33.52;100673.91;4930149;29;20076;-84
2023/05/22 10:10:22;;;;;;;5.22;4.93;;;;;;;31.21;34.73;100673.09;4923233;29;20059;-87
2023/05/22 10:13:05;;;;;;;4.95;4.55;;;;;;;31.35;33.95;100672.59;4912484;29;20128;-84
2023/05/22 10:15:32;;;;;;;5.40;4.90;;;;;;;31.54;34.36;100668.09;4892895;29;20171;-83
2023/05/22 10:17:59;;;;;;;6.10;5.47;;;;;;;32.03;33.61;100662.41;4926723;29;20091;-83
2023/05/22 10:20:27;;;;;;;5.45;4.95;;;;;;;32.91;31.91;100676.06;4913652;29;20051;-85
2023/05/22 10:22:55;;;;;;;6.90;5.40;;;;;;;34.08;30.62;100668.28;4918868;29;20054;-84
2023/05/22 10:25:22;;;;;;;8.80;5.13;;;;;;;34.17;30.03;100662.84;4937729;29;20652;-84
2023/05/22 10:27:54;;;;;;;5.00;4.47;;;;;;;34.28;29.91;100660.66;4924245;29;20057;-85
2023/05/22 10:30:32;;;;;;;5.60;5.13;;;;;;;34.65;29.32;100653.00;4904443;29;20052;-83
2023/05/22 10:33:15;;;;;;;5.32;4.82;;;;;;;35.07;29.07;100649.22;4937079;29;20054;-85
2023/05/22 10:35:58;;;;;;;6.40;5.57;;;;;;;35.41;28.55;100652.69;4935379;29;20043;-84
2023/05/22 10:38:55;;;;;;;5.20;4.70;;;;;;;35.49;27.94;100641.78;4919954;29;20059;-84
2023/05/22 10:41:24;;;;;;;6.20;5.40;;;;;;;35.74;28.39;100652.53;4935642;29;20064;-83
2023/05/22 10:43:51;;;;;;;5.18;4.78;;;;;;;35.43;28.16;100643.31;4937478;29;20821;-85
2023/05/22 10:46:18;;;;;;;5.63;5.13;;;;;;;34.98;28.92;100644.84;4922220;29;20177;-83
2023/05/22 10:48:49;;;;;;;6.97;5.28;;;;;;;34.79;29.28;100646.03;4906018;29;20142;-84
2023/05/22 10:51:21;;;;;;;6.20;5.45;;;;;;;35.03;29.17;100649.75;4918131;29;20052;-84
2023/05/22 10:53:53;;;;;;;6.20;5.25;;;;;;;34.98;28.90;100636.69;4922239;29;20402;-84
2023/05/22 10:56:20;;;;;;;5.78;5.15;;;;;;;35.29;29.25;100635.88;4922564;29;20046;-83
2023/05/22 10:58:57;;;;;;;7.13;5.10;;;;;;;35.54;28.46;100639.38;4905707;29;20593;-84
2023/05/22 11:01:27;;;;;;;6.68;6.05;;;;;;;35.46;29.10;100631.22;4918276;29;20155;-86
2023/05/22 11:04:07;;;;;;;9.65;6.03;;;;;;;35.41;28.38;100631.78;4890146;29;20062;-86
2023/05/22 11:07:00;;;;;;;5.53;5.03;;;;;;;35.13;28.94;100631.34;4920596;29;20402;-82
2023/05/22 11:09:32;;;;;;;6.30;5.80;;;;;;;34.85;29.04;100633.63;4918168;29;20047;-83
2023/05/22 11:12:28;;;;;;;7.53;5.20;;;;;;;34.91;28.85;100631.06;4910192;29;20478;-84
2023/05/22 11:15:05;;;;;;;5.32;4.93;;;;;;;35.47;28.62;100632.09;4916373;29;20132;-84
2023/05/22 11:17:35;;;;;;;6.80;5.00;;;;;;;35.33;28.41;100620.91;4913693;29;20632;-82
2023/05/22 11:20:21;;;;;;;6.03;5.32;;;;;;;34.82;29.19;100618.47;4899526;29;20541;-84
2023/05/22 11:23:04;;;;;;;5.05;4.65;;;;;;;36.41;27.79;100616.50;4901448;29;20044;-84
2023/05/22 11:25:36;;;;;;;5.30;4.90;;;;;;;37.01;27.27;100607.53;4914717;29;20631;-84
2023/05/22 11:28:09;;;;;;;5.05;4.65;;;;;;;37.52;26.23;100621.22;4933970;29;20062;-83
2023/05/22 11:30:42;;;;;;;5.05;4.75;;;;;;;37.73;26.32;100611.34;4919524;29;20529;-86
2023/05/22 11:33:09;;;;;;;5.97;5.40;;;;;;;37.65;26.13;100615.03;4913716;29;20119;-84